sensor_id;sensor_type;location;lat;lon;timestamp;P1;durP1;ratioP1;P2;durP2;ratioP2
34645;SDS011;20857;47.808;12.482;2022-08-01T00:02:06;5.20;;;3.05;;
34645;SDS011;20857;47.808;12.482;2022-08-01T00:04:31;7.68;;;2.80;;
34645;SDS011;20857;47.808;12.482;2022-08-01T00:06:57;3.08;;;2.60;;
34645;SDS011;20857;47.808;12.482;2022-08-01T00:09:22;4.00;;;2.80;;
34645;SDS011;20857;47.808;12.482;2022-08-01T00:11:48;4.28;;;2.80;;
34645;SDS011;20857;47.808;12.482;2022-08-01T00:14:14;4.50;;;2.30;;
34645;SDS011;20857;47.808;12.482;2022-08-01T00:16:39;2.75;;;2.55;;
34645;SDS011;20857;47.808;12.482;2022-08-01T00:19:05;7.03;;;2.75;;
34645;SDS011;20857;47.808;12.482;2022-08-01T00:21:31;5.90;;;2.53;;
34645;SDS011;20857;47.808;12.482;2022-08-01T00:23:56;4.65;;;2.80;;
34645;SDS011;20857;47.808;12.482;2022-08-01T00:26:22;5.20;;;2.75;;
34645;SDS011;20857;47.808;12.482;2022-08-01T00:28:47;6.10;;;2.65;;
34645;SDS011;20857;47.808;12.482;2022-08-01T00:31:13;2.72;;;2.42;;
34645;SDS011;20857;47.808;12.482;2022-08-01T00:33:39;6.95;;;2.55;;
34645;SDS011;20857;47.808;12.482;2022-08-01T00:36:04;7.28;;;2.83;;
34645;SDS011;20857;47.808;12.482;2022-08-01T00:38:30;4.93;;;2.72;;
34645;SDS011;20857;47.808;12.482;2022-08-01T00:40:56;8.23;;;3.10;;
34645;SDS011;20857;47.808;12.482;2022-08-01T00:43:21;3.63;;;2.83;;
34645;SDS011;20857;47.808;12.482;2022-08-01T00:45:47;3.75;;;2.55;;
34645;SDS011;20857;47.808;12.482;2022-08-01T00:48:13;3.65;;;2.40;;
34645;SDS011;20857;47.808;12.482;2022-08-01T00:50:39;5.38;;;2.58;;
34645;SDS011;20857;47.808;12.482;2022-08-01T00:53:04;4.32;;;2.90;;
34645;SDS011;20857;47.808;12.482;2022-08-01T00:55:31;3.15;;;2.58;;
34645;SDS011;20857;47.808;12.482;2022-08-01T00:57:57;4.53;;;2.35;;
34645;SDS011;20857;47.808;12.482;2022-08-01T01:00:23;9.13;;;2.70;;
34645;SDS011;20857;47.808;12.482;2022-08-01T01:02:50;4.65;;;2.50;;
34645;SDS011;20857;47.808;12.482;2022-08-01T01:05:15;5.10;;;2.83;;
34645;SDS011;20857;47.808;12.482;2022-08-01T01:07:50;3.50;;;2.85;;
34645;SDS011;20857;47.808;12.482;2022-08-01T01:10:40;6.40;;;2.38;;
34645;SDS011;20857;47.808;12.482;2022-08-01T01:13:27;7.95;;;2.97;;
34645;SDS011;20857;47.808;12.482;2022-08-01T01:16:06;4.50;;;2.67;;
34645;SDS011;20857;47.808;12.482;2022-08-01T01:18:55;4.17;;;2.93;;
34645;SDS011;20857;47.808;12.482;2022-08-01T01:27:33;3.85;;;2.53;;
34645;SDS011;20857;47.808;12.482;2022-08-01T01:29:56;3.95;;;2.85;;
34645;SDS011;20857;47.808;12.482;2022-08-01T01:32:28;5.10;;;2.38;;
34645;SDS011;20857;47.808;12.482;2022-08-01T01:34:58;4.70;;;2.60;;
34645;SDS011;20857;47.808;12.482;2022-08-01T01:37:27;5.20;;;2.38;;
34645;SDS011;20857;47.808;12.482;2022-08-01T01:39:54;5.05;;;2.33;;
34645;SDS011;20857;47.808;12.482;2022-08-01T01:42:22;4.82;;;2.90;;
34645;SDS011;20857;47.808;12.482;2022-08-01T01:44:50;6.13;;;2.63;;
34645;SDS011;20857;47.808;12.482;2022-08-01T01:47:17;2.83;;;2.60;;
34645;SDS011;20857;47.808;12.482;2022-08-01T01:49:43;4.10;;;2.45;;
34645;SDS011;20857;47.808;12.482;2022-08-01T01:52:12;2.78;;;2.30;;
34645;SDS011;20857;47.808;12.482;2022-08-01T01:54:42;4.85;;;2.83;;
34645;SDS011;20857;47.808;12.482;2022-08-01T01:57:11;3.40;;;2.47;;
34645;SDS011;20857;47.808;12.482;2022-08-01T01:59:40;8.02;;;2.63;;
34645;SDS011;20857;47.808;12.482;2022-08-01T02:02:07;4.88;;;2.78;;
34645;SDS011;20857;47.808;12.482;2022-08-01T02:04:36;6.53;;;2.50;;
34645;SDS011;20857;47.808;12.482;2022-08-01T02:07:05;3.75;;;2.15;;
34645;SDS011;20857;47.808;12.482;2022-08-01T02:09:33;5.13;;;2.70;;
34645;SDS011;20857;47.808;12.482;2022-08-01T02:12:02;8.10;;;2.50;;
34645;SDS011;20857;47.808;12.482;2022-08-01T02:14:30;7.05;;;2.80;;
34645;SDS011;20857;47.808;12.482;2022-08-01T02:17:00;3.53;;;2.58;;
34645;SDS011;20857;47.808;12.482;2022-08-01T02:19:28;3.90;;;2.85;;
34645;SDS011;20857;47.808;12.482;2022-08-01T02:21:56;2.75;;;2.45;;
34645;SDS011;20857;47.808;12.482;2022-08-01T02:27:28;3.17;;;2.65;;
34645;SDS011;20857;47.808;12.482;2022-08-01T02:30:03;4.82;;;2.65;;
34645;SDS011;20857;47.808;12.482;2022-08-01T02:33:18;4.07;;;2.80;;
34645;SDS011;20857;47.808;12.482;2022-08-01T02:35:27;3.85;;;2.67;;
34645;SDS011;20857;47.808;12.482;2022-08-01T02:37:55;7.18;;;2.60;;
34645;SDS011;20857;47.808;12.482;2022-08-01T02:40:27;5.05;;;2.55;;
34645;SDS011;20857;47.808;12.482;2022-08-01T02:42:57;3.40;;;2.90;;
34645;SDS011;20857;47.808;12.482;2022-08-01T02:45:25;3.67;;;2.95;;
34645;SDS011;20857;47.808;12.482;2022-08-01T02:47:54;9.43;;;2.72;;
34645;SDS011;20857;47.808;12.482;2022-08-01T02:50:24;4.47;;;3.28;;
34645;SDS011;20857;47.808;12.482;2022-08-01T02:52:51;7.60;;;3.03;;
34645;SDS011;20857;47.808;12.482;2022-08-01T02:55:19;5.18;;;2.60;;
34645;SDS011;20857;47.808;12.482;2022-08-01T02:57:47;6.40;;;2.85;;
34645;SDS011;20857;47.808;12.482;2022-08-01T03:00:15;4.80;;;2.55;;
34645;SDS011;20857;47.808;12.482;2022-08-01T03:02:41;3.00;;;2.70;;
34645;SDS011;20857;47.808;12.482;2022-08-01T03:05:10;5.45;;;2.67;;
34645;SDS011;20857;47.808;12.482;2022-08-01T03:07:37;3.72;;;2.80;;
34645;SDS011;20857;47.808;12.482;2022-08-01T03:10:04;4.50;;;3.00;;
34645;SDS011;20857;47.808;12.482;2022-08-01T03:12:31;4.57;;;2.78;;
34645;SDS011;20857;47.808;12.482;2022-08-01T03:14:59;4.40;;;2.80;;
34645;SDS011;20857;47.808;12.482;2022-08-01T03:17:27;5.18;;;2.63;;
34645;SDS011;20857;47.808;12.482;2022-08-01T03:19:54;4.40;;;2.97;;
34645;SDS011;20857;47.808;12.482;2022-08-01T03:22:22;3.58;;;2.78;;
34645;SDS011;20857;47.808;12.482;2022-08-01T03:24:50;3.63;;;2.83;;
34645;SDS011;20857;47.808;12.482;2022-08-01T03:27:19;8.43;;;2.85;;
34645;SDS011;20857;47.808;12.482;2022-08-01T03:29:46;3.15;;;2.78;;
34645;SDS011;20857;47.808;12.482;2022-08-01T03:32:14;4.45;;;2.88;;
34645;SDS011;20857;47.808;12.482;2022-08-01T03:34:41;5.15;;;2.67;;
34645;SDS011;20857;47.808;12.482;2022-08-01T03:37:12;3.30;;;3.00;;
34645;SDS011;20857;47.808;12.482;2022-08-01T03:39:49;5.55;;;3.10;;
34645;SDS011;20857;47.808;12.482;2022-08-01T03:42:23;6.03;;;3.00;;
34645;SDS011;20857;47.808;12.482;2022-08-01T03:44:54;5.85;;;2.97;;
34645;SDS011;20857;47.808;12.482;2022-08-01T03:47:29;5.18;;;2.65;;
34645;SDS011;20857;47.808;12.482;2022-08-01T03:49:58;4.40;;;2.80;;
34645;SDS011;20857;47.808;12.482;2022-08-01T03:52:26;4.38;;;2.95;;
34645;SDS011;20857;47.808;12.482;2022-08-01T03:54:54;3.92;;;2.97;;
34645;SDS011;20857;47.808;12.482;2022-08-01T03:57:21;7.82;;;2.80;;
34645;SDS011;20857;47.808;12.482;2022-08-01T03:59:48;5.03;;;3.28;;
34645;SDS011;20857;47.808;12.482;2022-08-01T04:02:15;6.72;;;2.92;;
34645;SDS011;20857;47.808;12.482;2022-08-01T04:04:41;3.63;;;3.00;;
34645;SDS011;20857;47.808;12.482;2022-08-01T04:07:30;5.72;;;3.58;;
34645;SDS011;20857;47.808;12.482;2022-08-01T04:09:57;10.48;;;3.30;;
34645;SDS011;20857;47.808;12.482;2022-08-01T04:12:23;3.28;;;2.97;;
34645;SDS011;20857;47.808;12.482;2022-08-01T04:14:48;5.70;;;3.35;;
34645;SDS011;20857;47.808;12.482;2022-08-01T04:17:15;6.10;;;4.00;;
34645;SDS011;20857;47.808;12.482;2022-08-01T04:19:41;4.65;;;3.03;;
34645;SDS011;20857;47.808;12.482;2022-08-01T04:22:08;6.25;;;2.75;;
34645;SDS011;20857;47.808;12.482;2022-08-01T04:24:36;5.32;;;3.25;;
34645;SDS011;20857;47.808;12.482;2022-08-01T04:27:05;4.57;;;2.95;;
34645;SDS011;20857;47.808;12.482;2022-08-01T04:29:35;4.93;;;3.20;;
34645;SDS011;20857;47.808;12.482;2022-08-01T04:32:02;6.38;;;3.00;;
34645;SDS011;20857;47.808;12.482;2022-08-01T04:34:30;5.85;;;3.10;;
34645;SDS011;20857;47.808;12.482;2022-08-01T04:36:56;4.72;;;2.90;;
34645;SDS011;20857;47.808;12.482;2022-08-01T04:39:23;3.08;;;2.88;;
34645;SDS011;20857;47.808;12.482;2022-08-01T04:41:55;3.92;;;3.30;;
34645;SDS011;20857;47.808;12.482;2022-08-01T04:44:23;3.00;;;2.70;;
34645;SDS011;20857;47.808;12.482;2022-08-01T04:46:50;5.47;;;3.22;;
34645;SDS011;20857;47.808;12.482;2022-08-01T04:49:19;4.97;;;2.65;;
34645;SDS011;20857;47.808;12.482;2022-08-01T04:51:49;4.93;;;3.03;;
34645;SDS011;20857;47.808;12.482;2022-08-01T04:54:16;4.55;;;3.33;;
34645;SDS011;20857;47.808;12.482;2022-08-01T04:56:42;5.47;;;3.13;;
34645;SDS011;20857;47.808;12.482;2022-08-01T04:59:08;7.03;;;3.42;;
34645;SDS011;20857;47.808;12.482;2022-08-01T05:01:54;6.28;;;3.20;;
34645;SDS011;20857;47.808;12.482;2022-08-01T05:04:19;3.58;;;3.28;;
34645;SDS011;20857;47.808;12.482;2022-08-01T05:06:45;3.17;;;2.70;;
34645;SDS011;20857;47.808;12.482;2022-08-01T05:09:11;4.25;;;3.55;;
34645;SDS011;20857;47.808;12.482;2022-08-01T05:11:36;3.22;;;2.92;;
34645;SDS011;20857;47.808;12.482;2022-08-01T05:14:02;3.33;;;2.75;;
34645;SDS011;20857;47.808;12.482;2022-08-01T05:16:27;6.47;;;3.75;;
34645;SDS011;20857;47.808;12.482;2022-08-01T05:18:53;5.93;;;3.63;;
34645;SDS011;20857;47.808;12.482;2022-08-01T05:21:18;7.30;;;3.00;;
34645;SDS011;20857;47.808;12.482;2022-08-01T05:23:44;5.93;;;3.42;;
34645;SDS011;20857;47.808;12.482;2022-08-01T05:26:10;4.57;;;3.47;;
34645;SDS011;20857;47.808;12.482;2022-08-01T05:28:36;5.85;;;3.33;;
34645;SDS011;20857;47.808;12.482;2022-08-01T05:31:02;6.13;;;3.20;;
34645;SDS011;20857;47.808;12.482;2022-08-01T05:33:28;5.22;;;3.25;;
34645;SDS011;20857;47.808;12.482;2022-08-01T05:35:54;3.75;;;3.15;;
34645;SDS011;20857;47.808;12.482;2022-08-01T05:38:19;8.38;;;3.25;;
34645;SDS011;20857;47.808;12.482;2022-08-01T05:40:45;5.65;;;3.13;;
34645;SDS011;20857;47.808;12.482;2022-08-01T05:43:11;8.05;;;3.15;;
34645;SDS011;20857;47.808;12.482;2022-08-01T05:45:37;6.55;;;3.35;;
34645;SDS011;20857;47.808;12.482;2022-08-01T05:48:02;7.00;;;3.10;;
34645;SDS011;20857;47.808;12.482;2022-08-01T05:50:28;3.78;;;3.20;;
34645;SDS011;20857;47.808;12.482;2022-08-01T05:52:53;5.82;;;3.30;;
34645;SDS011;20857;47.808;12.482;2022-08-01T05:55:19;3.97;;;3.13;;
34645;SDS011;20857;47.808;12.482;2022-08-01T05:57:45;5.93;;;3.45;;
34645;SDS011;20857;47.808;12.482;2022-08-01T06:00:10;4.25;;;3.40;;
34645;SDS011;20857;47.808;12.482;2022-08-01T06:02:41;6.47;;;3.05;;
34645;SDS011;20857;47.808;12.482;2022-08-01T06:05:07;5.45;;;2.90;;
34645;SDS011;20857;47.808;12.482;2022-08-01T06:07:34;6.45;;;3.60;;
34645;SDS011;20857;47.808;12.482;2022-08-01T06:10:00;9.43;;;3.72;;
34645;SDS011;20857;47.808;12.482;2022-08-01T06:12:25;3.08;;;2.78;;
34645;SDS011;20857;47.808;12.482;2022-08-01T06:14:51;4.78;;;3.03;;
34645;SDS011;20857;47.808;12.482;2022-08-01T06:17:17;6.72;;;2.80;;
34645;SDS011;20857;47.808;12.482;2022-08-01T06:19:42;7.05;;;3.30;;
34645;SDS011;20857;47.808;12.482;2022-08-01T06:24:39;7.15;;;3.03;;
34645;SDS011;20857;47.808;12.482;2022-08-01T06:27:04;7.80;;;2.92;;
34645;SDS011;20857;47.808;12.482;2022-08-01T06:29:30;5.32;;;2.80;;
34645;SDS011;20857;47.808;12.482;2022-08-01T06:31:57;6.95;;;2.97;;
34645;SDS011;20857;47.808;12.482;2022-08-01T06:34:23;5.22;;;2.80;;
34645;SDS011;20857;47.808;12.482;2022-08-01T06:36:52;5.45;;;2.83;;
34645;SDS011;20857;47.808;12.482;2022-08-01T06:39:17;3.95;;;2.45;;
34645;SDS011;20857;47.808;12.482;2022-08-01T06:41:43;2.10;;;1.90;;
34645;SDS011;20857;47.808;12.482;2022-08-01T06:44:11;3.40;;;2.38;;
34645;SDS011;20857;47.808;12.482;2022-08-01T06:46:37;2.65;;;2.38;;
34645;SDS011;20857;47.808;12.482;2022-08-01T06:49:03;4.60;;;2.40;;
34645;SDS011;20857;47.808;12.482;2022-08-01T06:51:29;2.83;;;1.90;;
34645;SDS011;20857;47.808;12.482;2022-08-01T06:54:02;4.05;;;2.45;;
34645;SDS011;20857;47.808;12.482;2022-08-01T06:56:28;7.93;;;2.72;;
34645;SDS011;20857;47.808;12.482;2022-08-01T06:58:53;4.03;;;2.70;;
34645;SDS011;20857;47.808;12.482;2022-08-01T07:01:25;7.10;;;2.22;;
34645;SDS011;20857;47.808;12.482;2022-08-01T07:03:54;6.43;;;2.85;;
34645;SDS011;20857;47.808;12.482;2022-08-01T07:06:23;3.72;;;2.05;;
34645;SDS011;20857;47.808;12.482;2022-08-01T07:08:50;6.88;;;2.05;;
34645;SDS011;20857;47.808;12.482;2022-08-01T07:11:16;3.17;;;2.20;;
34645;SDS011;20857;47.808;12.482;2022-08-01T07:13:43;3.45;;;2.30;;
34645;SDS011;20857;47.808;12.482;2022-08-01T07:16:10;5.30;;;2.63;;
34645;SDS011;20857;47.808;12.482;2022-08-01T07:18:36;4.13;;;2.88;;
34645;SDS011;20857;47.808;12.482;2022-08-01T07:21:02;5.88;;;2.28;;
34645;SDS011;20857;47.808;12.482;2022-08-01T07:23:28;3.65;;;2.65;;
34645;SDS011;20857;47.808;12.482;2022-08-01T07:25:53;2.80;;;2.25;;
34645;SDS011;20857;47.808;12.482;2022-08-01T07:28:19;7.07;;;2.20;;
34645;SDS011;20857;47.808;12.482;2022-08-01T07:30:45;3.33;;;2.10;;
34645;SDS011;20857;47.808;12.482;2022-08-01T07:33:10;3.40;;;2.30;;
34645;SDS011;20857;47.808;12.482;2022-08-01T07:35:36;3.42;;;2.03;;
34645;SDS011;20857;47.808;12.482;2022-08-01T07:38:04;2.97;;;2.67;;
34645;SDS011;20857;47.808;12.482;2022-08-01T07:40:33;2.72;;;2.30;;
34645;SDS011;20857;47.808;12.482;2022-08-01T07:42:58;5.93;;;2.45;;
34645;SDS011;20857;47.808;12.482;2022-08-01T07:45:24;3.55;;;2.35;;
34645;SDS011;20857;47.808;12.482;2022-08-01T07:47:51;2.83;;;2.45;;
34645;SDS011;20857;47.808;12.482;2022-08-01T07:50:17;3.58;;;2.40;;
34645;SDS011;20857;47.808;12.482;2022-08-01T07:52:43;3.72;;;2.78;;
34645;SDS011;20857;47.808;12.482;2022-08-01T07:55:09;4.55;;;2.85;;
34645;SDS011;20857;47.808;12.482;2022-08-01T07:57:36;5.72;;;2.80;;
34645;SDS011;20857;47.808;12.482;2022-08-01T08:00:03;4.53;;;2.35;;
34645;SDS011;20857;47.808;12.482;2022-08-01T08:02:31;2.67;;;2.47;;
34645;SDS011;20857;47.808;12.482;2022-08-01T08:04:56;5.63;;;2.50;;
34645;SDS011;20857;47.808;12.482;2022-08-01T08:07:22;3.13;;;2.65;;
34645;SDS011;20857;47.808;12.482;2022-08-01T08:09:48;5.30;;;2.67;;
34645;SDS011;20857;47.808;12.482;2022-08-01T08:12:13;2.30;;;2.10;;
34645;SDS011;20857;47.808;12.482;2022-08-01T08:14:39;3.28;;;2.55;;
34645;SDS011;20857;47.808;12.482;2022-08-01T08:17:04;5.63;;;3.13;;
34645;SDS011;20857;47.808;12.482;2022-08-01T08:19:30;5.13;;;3.08;;
34645;SDS011;20857;47.808;12.482;2022-08-01T08:21:58;5.43;;;3.25;;
34645;SDS011;20857;47.808;12.482;2022-08-01T08:24:24;4.22;;;2.65;;
34645;SDS011;20857;47.808;12.482;2022-08-01T08:26:53;4.03;;;2.88;;
34645;SDS011;20857;47.808;12.482;2022-08-01T08:29:20;3.00;;;2.80;;
34645;SDS011;20857;47.808;12.482;2022-08-01T08:31:47;4.68;;;2.78;;
34645;SDS011;20857;47.808;12.482;2022-08-01T08:34:13;3.50;;;2.92;;
34645;SDS011;20857;47.808;12.482;2022-08-01T08:36:39;3.05;;;2.72;;
34645;SDS011;20857;47.808;12.482;2022-08-01T08:39:04;4.50;;;2.58;;
34645;SDS011;20857;47.808;12.482;2022-08-01T08:41:33;7.22;;;2.75;;
34645;SDS011;20857;47.808;12.482;2022-08-01T08:44:02;5.93;;;3.28;;
34645;SDS011;20857;47.808;12.482;2022-08-01T08:46:29;4.78;;;2.72;;
34645;SDS011;20857;47.808;12.482;2022-08-01T08:48:57;4.45;;;2.40;;
34645;SDS011;20857;47.808;12.482;2022-08-01T08:51:26;4.68;;;3.28;;
34645;SDS011;20857;47.808;12.482;2022-08-01T08:53:53;3.00;;;2.78;;
34645;SDS011;20857;47.808;12.482;2022-08-01T08:56:20;6.78;;;2.80;;
34645;SDS011;20857;47.808;12.482;2022-08-01T08:58:48;10.15;;;3.10;;
34645;SDS011;20857;47.808;12.482;2022-08-01T09:01:15;2.97;;;2.67;;
34645;SDS011;20857;47.808;12.482;2022-08-01T09:03:42;6.03;;;3.08;;
34645;SDS011;20857;47.808;12.482;2022-08-01T09:06:08;8.55;;;2.80;;
34645;SDS011;20857;47.808;12.482;2022-08-01T09:08:34;3.35;;;2.83;;
34645;SDS011;20857;47.808;12.482;2022-08-01T09:11:00;4.13;;;3.08;;
34645;SDS011;20857;47.808;12.482;2022-08-01T09:13:26;5.15;;;2.42;;
34645;SDS011;20857;47.808;12.482;2022-08-01T09:15:52;3.92;;;2.80;;
34645;SDS011;20857;47.808;12.482;2022-08-01T09:23:53;5.93;;;3.08;;
34645;SDS011;20857;47.808;12.482;2022-08-01T09:26:20;4.55;;;2.92;;
34645;SDS011;20857;47.808;12.482;2022-08-01T09:28:54;6.85;;;2.95;;
34645;SDS011;20857;47.808;12.482;2022-08-01T09:31:20;5.13;;;3.00;;
34645;SDS011;20857;47.808;12.482;2022-08-01T09:33:46;6.05;;;3.22;;
34645;SDS011;20857;47.808;12.482;2022-08-01T09:36:12;4.88;;;3.45;;
34645;SDS011;20857;47.808;12.482;2022-08-01T09:38:37;3.20;;;2.90;;
34645;SDS011;20857;47.808;12.482;2022-08-01T09:41:03;5.07;;;3.13;;
34645;SDS011;20857;47.808;12.482;2022-08-01T09:43:29;3.53;;;3.05;;
34645;SDS011;20857;47.808;12.482;2022-08-01T09:45:56;6.15;;;3.40;;
34645;SDS011;20857;47.808;12.482;2022-08-01T09:48:22;5.50;;;2.70;;
34645;SDS011;20857;47.808;12.482;2022-08-01T09:50:49;7.05;;;3.45;;
34645;SDS011;20857;47.808;12.482;2022-08-01T09:53:16;2.78;;;2.45;;
34645;SDS011;20857;47.808;12.482;2022-08-01T09:55:42;3.13;;;2.80;;
34645;SDS011;20857;47.808;12.482;2022-08-01T10:03:47;4.57;;;2.67;;
34645;SDS011;20857;47.808;12.482;2022-08-01T10:06:30;3.00;;;2.65;;
34645;SDS011;20857;47.808;12.482;2022-08-01T10:08:55;3.90;;;2.50;;
34645;SDS011;20857;47.808;12.482;2022-08-01T10:11:21;2.88;;;2.30;;
34645;SDS011;20857;47.808;12.482;2022-08-01T10:13:48;8.55;;;2.50;;
34645;SDS011;20857;47.808;12.482;2022-08-01T10:16:13;2.78;;;2.13;;
34645;SDS011;20857;47.808;12.482;2022-08-01T10:18:41;2.30;;;1.90;;
34645;SDS011;20857;47.808;12.482;2022-08-01T10:21:08;3.22;;;2.40;;
34645;SDS011;20857;47.808;12.482;2022-08-01T10:23:35;5.43;;;2.80;;
34645;SDS011;20857;47.808;12.482;2022-08-01T10:26:02;3.15;;;2.85;;
34645;SDS011;20857;47.808;12.482;2022-08-01T10:28:31;3.35;;;2.38;;
34645;SDS011;20857;47.808;12.482;2022-08-01T10:31:01;4.47;;;2.90;;
34645;SDS011;20857;47.808;12.482;2022-08-01T10:33:28;3.78;;;2.70;;
34645;SDS011;20857;47.808;12.482;2022-08-01T10:35:55;3.05;;;2.75;;
34645;SDS011;20857;47.808;12.482;2022-08-01T10:38:21;5.57;;;3.08;;
34645;SDS011;20857;47.808;12.482;2022-08-01T10:40:48;3.25;;;2.45;;
34645;SDS011;20857;47.808;12.482;2022-08-01T10:43:16;2.85;;;1.90;;
34645;SDS011;20857;47.808;12.482;2022-08-01T10:45:42;3.90;;;2.45;;
34645;SDS011;20857;47.808;12.482;2022-08-01T10:48:22;2.95;;;2.25;;
34645;SDS011;20857;47.808;12.482;2022-08-01T10:50:55;2.03;;;1.80;;
34645;SDS011;20857;47.808;12.482;2022-08-01T10:53:27;3.25;;;1.80;;
34645;SDS011;20857;47.808;12.482;2022-08-01T10:58:29;6.32;;;2.70;;
34645;SDS011;20857;47.808;12.482;2022-08-01T11:01:24;4.35;;;2.15;;
34645;SDS011;20857;47.808;12.482;2022-08-01T11:06:24;4.55;;;2.30;;
34645;SDS011;20857;47.808;12.482;2022-08-01T11:08:54;4.60;;;1.70;;
34645;SDS011;20857;47.808;12.482;2022-08-01T11:11:20;2.75;;;1.52;;
34645;SDS011;20857;47.808;12.482;2022-08-01T11:16:29;6.13;;;2.35;;
34645;SDS011;20857;47.808;12.482;2022-08-01T11:18:56;2.80;;;2.00;;
34645;SDS011;20857;47.808;12.482;2022-08-01T11:21:56;5.35;;;1.77;;
34645;SDS011;20857;47.808;12.482;2022-08-01T11:27:30;3.63;;;2.08;;
34645;SDS011;20857;47.808;12.482;2022-08-01T11:32:50;3.38;;;1.88;;
34645;SDS011;20857;47.808;12.482;2022-08-01T11:35:23;3.35;;;1.50;;
34645;SDS011;20857;47.808;12.482;2022-08-01T11:37:50;1.83;;;1.50;;
34645;SDS011;20857;47.808;12.482;2022-08-01T11:45:47;6.05;;;1.52;;
34645;SDS011;20857;47.808;12.482;2022-08-01T11:48:21;2.67;;;1.17;;
34645;SDS011;20857;47.808;12.482;2022-08-01T11:50:49;2.65;;;1.40;;
34645;SDS011;20857;47.808;12.482;2022-08-01T11:53:17;1.38;;;1.27;;
34645;SDS011;20857;47.808;12.482;2022-08-01T11:55:49;2.50;;;1.58;;
34645;SDS011;20857;47.808;12.482;2022-08-01T11:58:22;1.73;;;1.58;;
34645;SDS011;20857;47.808;12.482;2022-08-01T12:00:52;3.20;;;1.30;;
34645;SDS011;20857;47.808;12.482;2022-08-01T12:03:26;3.33;;;1.55;;
34645;SDS011;20857;47.808;12.482;2022-08-01T12:05:58;1.85;;;1.55;;
34645;SDS011;20857;47.808;12.482;2022-08-01T12:08:29;2.65;;;1.45;;
34645;SDS011;20857;47.808;12.482;2022-08-01T12:11:01;2.05;;;1.30;;
34645;SDS011;20857;47.808;12.482;2022-08-01T12:13:38;2.22;;;1.40;;
34645;SDS011;20857;47.808;12.482;2022-08-01T12:16:09;2.40;;;1.77;;
34645;SDS011;20857;47.808;12.482;2022-08-01T12:18:38;2.15;;;1.10;;
34645;SDS011;20857;47.808;12.482;2022-08-01T12:21:05;2.95;;;1.00;;
34645;SDS011;20857;47.808;12.482;2022-08-01T12:23:31;2.08;;;1.08;;
34645;SDS011;20857;47.808;12.482;2022-08-01T12:25:57;1.52;;;1.33;;
34645;SDS011;20857;47.808;12.482;2022-08-01T12:28:22;3.42;;;1.23;;
34645;SDS011;20857;47.808;12.482;2022-08-01T12:30:52;1.70;;;1.30;;
34645;SDS011;20857;47.808;12.482;2022-08-01T12:33:19;2.00;;;1.10;;
34645;SDS011;20857;47.808;12.482;2022-08-01T12:35:46;2.58;;;0.82;;
34645;SDS011;20857;47.808;12.482;2022-08-01T12:38:16;3.95;;;1.08;;
34645;SDS011;20857;47.808;12.482;2022-08-01T12:40:53;1.48;;;1.35;;
34645;SDS011;20857;47.808;12.482;2022-08-01T12:43:20;3.00;;;1.40;;
34645;SDS011;20857;47.808;12.482;2022-08-01T12:45:49;2.03;;;1.20;;
34645;SDS011;20857;47.808;12.482;2022-08-01T12:48:16;3.17;;;1.52;;
34645;SDS011;20857;47.808;12.482;2022-08-01T12:50:49;3.00;;;1.52;;
34645;SDS011;20857;47.808;12.482;2022-08-01T12:53:17;2.17;;;1.10;;
34645;SDS011;20857;47.808;12.482;2022-08-01T12:58:13;2.58;;;1.52;;
34645;SDS011;20857;47.808;12.482;2022-08-01T13:00:40;2.03;;;1.10;;
34645;SDS011;20857;47.808;12.482;2022-08-01T13:03:10;4.32;;;1.10;;
34645;SDS011;20857;47.808;12.482;2022-08-01T13:08:37;2.90;;;1.10;;
34645;SDS011;20857;47.808;12.482;2022-08-01T13:11:07;1.98;;;1.08;;
34645;SDS011;20857;47.808;12.482;2022-08-01T13:13:41;1.20;;;1.10;;
34645;SDS011;20857;47.808;12.482;2022-08-01T13:16:12;2.42;;;1.17;;
34645;SDS011;20857;47.808;12.482;2022-08-01T13:18:38;2.15;;;1.08;;
34645;SDS011;20857;47.808;12.482;2022-08-01T13:23:35;3.08;;;0.80;;
34645;SDS011;20857;47.808;12.482;2022-08-01T13:26:01;5.38;;;1.13;;
34645;SDS011;20857;47.808;12.482;2022-08-01T13:28:27;1.52;;;1.27;;
34645;SDS011;20857;47.808;12.482;2022-08-01T13:33:22;2.35;;;1.23;;
34645;SDS011;20857;47.808;12.482;2022-08-01T13:35:50;4.57;;;1.00;;
34645;SDS011;20857;47.808;12.482;2022-08-01T13:38:16;4.72;;;1.02;;
34645;SDS011;20857;47.808;12.482;2022-08-01T13:40:42;1.20;;;1.02;;
34645;SDS011;20857;47.808;12.482;2022-08-01T13:43:08;1.75;;;1.15;;
34645;SDS011;20857;47.808;12.482;2022-08-01T13:45:34;1.42;;;1.00;;
34645;SDS011;20857;47.808;12.482;2022-08-01T13:47:59;1.55;;;0.90;;
34645;SDS011;20857;47.808;12.482;2022-08-01T13:50:25;3.03;;;1.10;;
34645;SDS011;20857;47.808;12.482;2022-08-01T13:52:51;2.00;;;0.98;;
34645;SDS011;20857;47.808;12.482;2022-08-01T13:55:17;3.00;;;0.75;;
34645;SDS011;20857;47.808;12.482;2022-08-01T13:57:42;1.95;;;1.20;;
34645;SDS011;20857;47.808;12.482;2022-08-01T14:00:08;2.70;;;0.98;;
34645;SDS011;20857;47.808;12.482;2022-08-01T14:02:34;1.80;;;1.05;;
34645;SDS011;20857;47.808;12.482;2022-08-01T14:05:00;2.97;;;1.10;;
34645;SDS011;20857;47.808;12.482;2022-08-01T14:07:26;2.78;;;1.00;;
34645;SDS011;20857;47.808;12.482;2022-08-01T14:09:52;6.35;;;1.10;;
34645;SDS011;20857;47.808;12.482;2022-08-01T14:12:18;5.07;;;0.90;;
34645;SDS011;20857;47.808;12.482;2022-08-01T14:14:43;0.82;;;0.80;;
34645;SDS011;20857;47.808;12.482;2022-08-01T14:17:09;1.38;;;1.27;;
34645;SDS011;20857;47.808;12.482;2022-08-01T14:19:38;3.17;;;1.45;;
34645;SDS011;20857;47.808;12.482;2022-08-01T14:22:03;4.00;;;1.23;;
34645;SDS011;20857;47.808;12.482;2022-08-01T14:24:29;1.85;;;1.02;;
34645;SDS011;20857;47.808;12.482;2022-08-01T14:26:54;4.45;;;1.20;;
34645;SDS011;20857;47.808;12.482;2022-08-01T14:29:20;2.10;;;0.93;;
34645;SDS011;20857;47.808;12.482;2022-08-01T14:31:46;4.72;;;1.20;;
34645;SDS011;20857;47.808;12.482;2022-08-01T14:34:12;1.60;;;0.82;;
34645;SDS011;20857;47.808;12.482;2022-08-01T14:36:38;1.70;;;0.80;;
34645;SDS011;20857;47.808;12.482;2022-08-01T14:39:03;1.48;;;1.08;;
34645;SDS011;20857;47.808;12.482;2022-08-01T14:41:29;1.52;;;0.95;;
34645;SDS011;20857;47.808;12.482;2022-08-01T14:43:55;2.55;;;1.20;;
34645;SDS011;20857;47.808;12.482;2022-08-01T14:46:20;2.13;;;1.30;;
34645;SDS011;20857;47.808;12.482;2022-08-01T14:48:46;1.73;;;1.13;;
34645;SDS011;20857;47.808;12.482;2022-08-01T14:51:12;1.02;;;0.93;;
34645;SDS011;20857;47.808;12.482;2022-08-01T14:53:38;1.33;;;1.13;;
34645;SDS011;20857;47.808;12.482;2022-08-01T14:56:04;1.02;;;0.93;;
34645;SDS011;20857;47.808;12.482;2022-08-01T14:58:30;2.20;;;0.80;;
34645;SDS011;20857;47.808;12.482;2022-08-01T15:00:56;1.02;;;0.90;;
34645;SDS011;20857;47.808;12.482;2022-08-01T15:03:22;0.75;;;0.75;;
34645;SDS011;20857;47.808;12.482;2022-08-01T15:05:47;2.60;;;0.90;;
34645;SDS011;20857;47.808;12.482;2022-08-01T15:08:13;1.63;;;1.10;;
34645;SDS011;20857;47.808;12.482;2022-08-01T15:10:39;4.57;;;1.27;;
34645;SDS011;20857;47.808;12.482;2022-08-01T15:13:05;1.80;;;1.00;;
34645;SDS011;20857;47.808;12.482;2022-08-01T15:15:30;2.95;;;1.30;;
34645;SDS011;20857;47.808;12.482;2022-08-01T15:17:56;1.92;;;1.00;;
34645;SDS011;20857;47.808;12.482;2022-08-01T15:20:22;2.95;;;0.90;;
34645;SDS011;20857;47.808;12.482;2022-08-01T15:22:48;2.13;;;1.10;;
34645;SDS011;20857;47.808;12.482;2022-08-01T15:25:14;2.47;;;0.85;;
34645;SDS011;20857;47.808;12.482;2022-08-01T15:27:39;4.45;;;1.10;;
34645;SDS011;20857;47.808;12.482;2022-08-01T15:30:05;6.07;;;1.08;;